PVV220 EBOS-LPMA
Flight info
| Callsign | PVV220 |
|---|---|
| Flight time | 3h 17m |
| Altitude | 30000 |
| Route | SASKI L179 SIRGO L620 SAM M195 LORKU DCT EBOMO DCT KORUL DCT DEMOS DCT IBIDO DCT VERAM DCT PECKY DCT LIDRO |
| Aircraft | B742/H-SDFHIRWXY/L |
Departure
| Time | 2026-04-21 15:49 |
|---|---|
| Airport | Ostend-Bruges International Airport (EBOS) |
Arrival
| Time | 2026-04-21 19:07 |
|---|---|
| Airport | Cristiano Ronaldo International Airport (LPMA) |
| Time | Latitude | Longitude | Altitude | Speed | Heading |
|---|---|---|---|---|---|
| 2026-04-21 15:18 | 51.19699 | 2.89596 | 23 ft | 0 kts | 98° |
| 2026-04-21 15:30 | 51.19700 | 2.89587 | 22 ft | 2 kts | 98° |
| 2026-04-21 15:30 | 51.19702 | 2.89563 | 22 ft | 2 kts | 98° |
| 2026-04-21 15:30 | 51.19704 | 2.89539 | 22 ft | 2 kts | 98° |
| 2026-04-21 15:31 | 51.19706 | 2.89524 | 22 ft | 1 kts | 98° |
| 2026-04-21 15:31 | 51.19706 | 2.89500 | 22 ft | 2 kts | 75° |
| 2026-04-21 15:31 | 51.19699 | 2.89479 | 22 ft | 2 kts | 51° |
| 2026-04-21 15:31 | 51.19688 | 2.89463 | 22 ft | 2 kts | 27° |
| 2026-04-21 15:32 | 51.19678 | 2.89457 | 22 ft | 0 kts | 11° |
| 2026-04-21 15:32 | 51.19673 | 2.89455 | 22 ft | 0 kts | 10° |
| 2026-04-21 15:36 | 51.19676 | 2.89456 | 22 ft | 2 kts | 10° |
| 2026-04-21 15:36 | 51.19700 | 2.89463 | 22 ft | 4 kts | 11° |
| 2026-04-21 15:36 | 51.19741 | 2.89476 | 22 ft | 7 kts | 12° |
| 2026-04-21 15:37 | 51.19781 | 2.89486 | 22 ft | 0 kts | 8° |
| 2026-04-21 15:37 | 51.19786 | 2.89487 | 22 ft | 2 kts | 9° |
| 2026-04-21 15:37 | 51.19811 | 2.89494 | 22 ft | 5 kts | 9° |
| 2026-04-21 15:38 | 51.19858 | 2.89505 | 22 ft | 8 kts | 8° |
| 2026-04-21 15:38 | 51.19922 | 2.89521 | 22 ft | 10 kts | 9° |
| 2026-04-21 15:38 | 51.19996 | 2.89551 | 22 ft | 10 kts | 21° |
| 2026-04-21 15:38 | 51.20058 | 2.89612 | 22 ft | 10 kts | 43° |
| 2026-04-21 15:39 | 51.20108 | 2.89692 | 22 ft | 10 kts | 46° |
| 2026-04-21 15:39 | 51.20158 | 2.89774 | 22 ft | 11 kts | 45° |
| 2026-04-21 15:39 | 51.20222 | 2.89855 | 22 ft | 12 kts | 27° |
| 2026-04-21 15:39 | 51.20301 | 2.89845 | 22 ft | 12 kts | 323° |
| 2026-04-21 15:40 | 51.20328 | 2.89720 | 22 ft | 13 kts | 261° |
| 2026-04-21 15:40 | 51.20306 | 2.89560 | 22 ft | 16 kts | 257° |
| 2026-04-21 15:40 | 51.20278 | 2.89375 | 22 ft | 18 kts | 256° |
| 2026-04-21 15:40 | 51.20245 | 2.89156 | 21 ft | 21 kts | 256° |
| 2026-04-21 15:41 | 51.20207 | 2.88907 | 21 ft | 24 kts | 257° |
| 2026-04-21 15:41 | 51.20166 | 2.88635 | 21 ft | 25 kts | 257° |
| 2026-04-21 15:41 | 51.20126 | 2.88375 | 22 ft | 22 kts | 257° |
| 2026-04-21 15:41 | 51.20089 | 2.88135 | 22 ft | 22 kts | 257° |
| 2026-04-21 15:42 | 51.20055 | 2.87902 | 23 ft | 21 kts | 256° |
| 2026-04-21 15:42 | 51.20021 | 2.87672 | 24 ft | 21 kts | 255° |
| 2026-04-21 15:42 | 51.19983 | 2.87433 | 24 ft | 22 kts | 257° |
| 2026-04-21 15:42 | 51.19948 | 2.87185 | 24 ft | 22 kts | 257° |
| 2026-04-21 15:43 | 51.19911 | 2.86941 | 24 ft | 22 kts | 256° |
| 2026-04-21 15:43 | 51.19873 | 2.86694 | 24 ft | 23 kts | 256° |
| 2026-04-21 15:43 | 51.19836 | 2.86441 | 24 ft | 23 kts | 257° |
| 2026-04-21 15:43 | 51.19794 | 2.86181 | 24 ft | 24 kts | 256° |
| 2026-04-21 15:44 | 51.19755 | 2.85922 | 23 ft | 22 kts | 256° |
| 2026-04-21 15:44 | 51.19720 | 2.85693 | 23 ft | 20 kts | 257° |
| 2026-04-21 15:44 | 51.19690 | 2.85492 | 23 ft | 17 kts | 256° |
| 2026-04-21 15:44 | 51.19665 | 2.85386 | 23 ft | 3 kts | 215° |
| 2026-04-21 15:45 | 51.19646 | 2.85366 | 23 ft | 4 kts | 217° |
| 2026-04-21 15:45 | 51.19629 | 2.85327 | 23 ft | 4 kts | 255° |
| 2026-04-21 15:45 | 51.19630 | 2.85310 | 23 ft | 0 kts | 288° |
| 2026-04-21 15:45 | 51.19632 | 2.85304 | 23 ft | 0 kts | 303° |
| 2026-04-21 15:46 | 51.19635 | 2.85299 | 23 ft | 0 kts | 317° |
| 2026-04-21 15:46 | 51.19640 | 2.85294 | 23 ft | 1 kts | 331° |
| 2026-04-21 15:46 | 51.19648 | 2.85290 | 23 ft | 0 kts | 351° |
| 2026-04-21 15:46 | 51.19654 | 2.85291 | 23 ft | 0 kts | 13° |
| 2026-04-21 15:47 | 51.19659 | 2.85296 | 23 ft | 0 kts | 34° |
| 2026-04-21 15:47 | 51.19662 | 2.85302 | 23 ft | 0 kts | 53° |
| 2026-04-21 15:47 | 51.19664 | 2.85308 | 23 ft | 0 kts | 72° |
| 2026-04-21 15:47 | 51.19664 | 2.85312 | 23 ft | 0 kts | 77° |
| 2026-04-21 15:48 | 51.19666 | 2.85322 | 23 ft | 2 kts | 77° |
| 2026-04-21 15:48 | 51.19680 | 2.85419 | 23 ft | 24 kts | 77° |
| 2026-04-21 15:49 | 51.19771 | 2.86036 | 24 ft | 88 kts | 76° |
| 2026-04-21 15:49 | 51.19960 | 2.87280 | 25 ft | 143 kts | 76° |
| 2026-04-21 15:49 | 51.20206 | 2.89043 | 192 ft | 172 kts | 76° |
| 2026-04-21 15:49 | 51.20405 | 2.90846 | 908 ft | 164 kts | 77° |
| 2026-04-21 15:50 | 51.20589 | 2.92678 | 1382 ft | 173 kts | 78° |
| 2026-04-21 15:50 | 51.20766 | 2.94530 | 1987 ft | 168 kts | 79° |
| 2026-04-21 15:50 | 51.20981 | 2.96369 | 2268 ft | 175 kts | 74° |
| 2026-04-21 15:50 | 51.21365 | 2.98275 | 2567 ft | 181 kts | 69° |
| 2026-04-21 15:51 | 51.21779 | 3.00220 | 2852 ft | 190 kts | 72° |
| 2026-04-21 15:51 | 51.22169 | 3.02270 | 3171 ft | 197 kts | 69° |
| 2026-04-21 15:51 | 51.22960 | 3.04105 | 3334 ft | 213 kts | 36° |
| 2026-04-21 15:51 | 51.24410 | 3.04857 | 3512 ft | 233 kts | 2° |
| 2026-04-21 15:52 | 51.25992 | 3.04108 | 3684 ft | 251 kts | 327° |
| 2026-04-21 15:52 | 51.27117 | 3.01927 | 4077 ft | 267 kts | 294° |
| 2026-04-21 15:52 | 51.27502 | 3.00025 | 4343 ft | 275 kts | 288° |
| 2026-04-21 15:52 | 51.28164 | 2.96010 | 4960 ft | 283 kts | 287° |
| 2026-04-21 15:53 | 51.28660 | 2.92961 | 5512 ft | 286 kts | 287° |
| 2026-04-21 15:53 | 51.29276 | 2.89977 | 6068 ft | 284 kts | 304° |
| 2026-04-21 15:53 | 51.30513 | 2.87598 | 6651 ft | 278 kts | 320° |
| 2026-04-21 15:53 | 51.31930 | 2.85483 | 7219 ft | 280 kts | 321° |
| 2026-04-21 15:54 | 51.33339 | 2.83378 | 7769 ft | 283 kts | 320° |
| 2026-04-21 15:54 | 51.34772 | 2.81195 | 8332 ft | 285 kts | 320° |
| 2026-04-21 15:54 | 51.36196 | 2.79005 | 8857 ft | 288 kts | 320° |
| 2026-04-21 15:54 | 51.37650 | 2.76756 | 9396 ft | 291 kts | 320° |
| 2026-04-21 15:55 | 51.39100 | 2.74513 | 9796 ft | 299 kts | 320° |
| 2026-04-21 15:55 | 51.40637 | 2.72135 | 10046 ft | 313 kts | 320° |
| 2026-04-21 15:55 | 51.42245 | 2.69644 | 10295 ft | 328 kts | 320° |
| 2026-04-21 15:55 | 51.43901 | 2.67074 | 10561 ft | 342 kts | 320° |
| 2026-04-21 15:56 | 51.45640 | 2.64371 | 10808 ft | 357 kts | 319° |
| 2026-04-21 15:56 | 51.47465 | 2.61533 | 11068 ft | 371 kts | 319° |
| 2026-04-21 15:56 | 51.49326 | 2.58636 | 11331 ft | 384 kts | 319° |
| 2026-04-21 15:56 | 51.51282 | 2.55590 | 11587 ft | 397 kts | 319° |
| 2026-04-21 15:57 | 51.53191 | 2.52302 | 11840 ft | 411 kts | 309° |
| 2026-04-21 15:57 | 51.54639 | 2.48256 | 12100 ft | 426 kts | 295° |
| 2026-04-21 15:57 | 51.55459 | 2.43623 | 12519 ft | 436 kts | 281° |
| 2026-04-21 15:57 | 51.55744 | 2.38847 | 13117 ft | 438 kts | 275° |
| 2026-04-21 15:58 | 51.55886 | 2.33900 | 13683 ft | 441 kts | 273° |
| 2026-04-21 15:58 | 51.56012 | 2.28992 | 14302 ft | 441 kts | 274° |
| 2026-04-21 15:58 | 51.56168 | 2.24125 | 14954 ft | 441 kts | 274° |
| 2026-04-21 15:58 | 51.56364 | 2.19231 | 15607 ft | 440 kts | 275° |
| 2026-04-21 15:59 | 51.56587 | 2.14344 | 16264 ft | 440 kts | 275° |
| 2026-04-21 15:59 | 51.56820 | 2.09486 | 16914 ft | 439 kts | 276° |
| 2026-04-21 15:59 | 51.57059 | 2.04586 | 17481 ft | 439 kts | 276° |
| 2026-04-21 15:59 | 51.57296 | 1.99731 | 18055 ft | 440 kts | 276° |
| 2026-04-21 16:00 | 51.57534 | 1.94807 | 18635 ft | 440 kts | 276° |
| 2026-04-21 16:00 | 51.57766 | 1.89943 | 19216 ft | 440 kts | 276° |
| 2026-04-21 16:00 | 51.57996 | 1.85091 | 19727 ft | 441 kts | 276° |
| 2026-04-21 16:00 | 51.58228 | 1.80133 | 20269 ft | 442 kts | 276° |
| 2026-04-21 16:01 | 51.58456 | 1.75229 | 20801 ft | 442 kts | 276° |
| 2026-04-21 16:01 | 51.58680 | 1.70357 | 21323 ft | 442 kts | 276° |
| 2026-04-21 16:01 | 51.58904 | 1.65457 | 21851 ft | 442 kts | 276° |
| 2026-04-21 16:01 | 51.59127 | 1.60500 | 22333 ft | 442 kts | 277° |
| 2026-04-21 16:02 | 51.59347 | 1.55609 | 22793 ft | 443 kts | 277° |
| 2026-04-21 16:02 | 51.59565 | 1.50707 | 23250 ft | 444 kts | 277° |
| 2026-04-21 16:02 | 51.59784 | 1.45767 | 23660 ft | 446 kts | 277° |
| 2026-04-21 16:02 | 51.60003 | 1.40755 | 24029 ft | 448 kts | 277° |
| 2026-04-21 16:03 | 51.60219 | 1.35766 | 24381 ft | 450 kts | 277° |
| 2026-04-21 16:03 | 51.60422 | 1.30762 | 24758 ft | 451 kts | 276° |
| 2026-04-21 16:03 | 51.60608 | 1.25686 | 25124 ft | 452 kts | 276° |
| 2026-04-21 16:03 | 51.60794 | 1.20610 | 25488 ft | 453 kts | 277° |
| 2026-04-21 16:04 | 51.60987 | 1.15537 | 25868 ft | 452 kts | 277° |
| 2026-04-21 16:04 | 51.61182 | 1.10529 | 26221 ft | 452 kts | 277° |
| 2026-04-21 16:04 | 51.61382 | 1.05507 | 26596 ft | 451 kts | 277° |
| 2026-04-21 16:04 | 51.61584 | 1.00410 | 26944 ft | 451 kts | 277° |
| 2026-04-21 16:05 | 51.61780 | 0.95437 | 27259 ft | 450 kts | 278° |
| 2026-04-21 16:05 | 51.61977 | 0.90417 | 27589 ft | 449 kts | 278° |
| 2026-04-21 16:05 | 51.62175 | 0.85363 | 27942 ft | 449 kts | 278° |
| 2026-04-21 16:05 | 51.62365 | 0.80423 | 28189 ft | 449 kts | 278° |
| 2026-04-21 16:06 | 51.62557 | 0.75376 | 28439 ft | 450 kts | 278° |
| 2026-04-21 16:06 | 51.62695 | 0.70366 | 28691 ft | 452 kts | 273° |
| 2026-04-21 16:06 | 51.62275 | 0.65357 | 28957 ft | 461 kts | 261° |
| 2026-04-21 16:06 | 51.61131 | 0.60478 | 29262 ft | 469 kts | 249° |
| 2026-04-21 16:07 | 51.59437 | 0.55990 | 29593 ft | 474 kts | 243° |
| 2026-04-21 16:07 | 51.57527 | 0.51701 | 29918 ft | 475 kts | 241° |
| 2026-04-21 16:07 | 51.55555 | 0.47447 | 30193 ft | 474 kts | 241° |
| 2026-04-21 16:07 | 51.53592 | 0.43202 | 30276 ft | 478 kts | 242° |
| 2026-04-21 16:08 | 51.47652 | 0.30133 | 30288 ft | 487 kts | 241° |
| 2026-04-21 16:09 | 51.43665 | 0.21398 | 30286 ft | 492 kts | 241° |
| 2026-04-21 16:09 | 51.39658 | 0.12534 | 30279 ft | 494 kts | 241° |
| 2026-04-21 16:10 | 51.35640 | 0.03621 | 30281 ft | 493 kts | 241° |
| 2026-04-21 16:10 | 51.31633 | -0.05252 | 30276 ft | 495 kts | 242° |
| 2026-04-21 16:11 | 51.27603 | -0.14147 | 30274 ft | 493 kts | 242° |
| 2026-04-21 16:11 | 51.23709 | -0.22710 | 30266 ft | 493 kts | 241° |
| 2026-04-21 16:12 | 51.20371 | -0.30036 | 30263 ft | 494 kts | 241° |
| 2026-04-21 16:12 | 51.15663 | -0.40327 | 30259 ft | 494 kts | 240° |
| 2026-04-21 16:13 | 51.11600 | -0.49172 | 30256 ft | 493 kts | 240° |
| 2026-04-21 16:13 | 51.07558 | -0.57946 | 30253 ft | 493 kts | 241° |
| 2026-04-21 16:13 | 51.05798 | -0.62562 | 30249 ft | 483 kts | 252° |
| 2026-04-21 16:14 | 51.04672 | -0.67499 | 30254 ft | 475 kts | 259° |
| 2026-04-21 16:14 | 51.03200 | -0.77655 | 30244 ft | 472 kts | 263° |
| 2026-04-21 16:15 | 51.01897 | -0.87848 | 30242 ft | 473 kts | 263° |
| 2026-04-21 16:15 | 51.00546 | -0.98085 | 30239 ft | 473 kts | 262° |
| 2026-04-21 16:16 | 50.99169 | -1.08250 | 30231 ft | 473 kts | 262° |
| 2026-04-21 16:16 | 50.97774 | -1.18413 | 30231 ft | 473 kts | 262° |
| 2026-04-21 16:17 | 50.96189 | -1.28585 | 30223 ft | 478 kts | 253° |
| 2026-04-21 16:17 | 50.94667 | -1.33304 | 30228 ft | 487 kts | 242° |
| 2026-04-21 16:17 | 50.92537 | -1.37447 | 30226 ft | 497 kts | 230° |
| 2026-04-21 16:18 | 50.86921 | -1.44094 | 30220 ft | 508 kts | 218° |
| 2026-04-21 16:18 | 50.80959 | -1.49970 | 30217 ft | 508 kts | 218° |
| 2026-04-21 16:19 | 50.75021 | -1.55937 | 30218 ft | 508 kts | 219° |
| 2026-04-21 16:19 | 50.69132 | -1.61983 | 30213 ft | 506 kts | 219° |
| 2026-04-21 16:20 | 50.63221 | -1.68043 | 30211 ft | 505 kts | 218° |
| 2026-04-21 16:20 | 50.57352 | -1.73963 | 30203 ft | 505 kts | 218° |
| 2026-04-21 16:21 | 50.51451 | -1.79962 | 30201 ft | 503 kts | 218° |
| 2026-04-21 16:21 | 50.45600 | -1.85931 | 30193 ft | 503 kts | 218° |
| 2026-04-21 16:22 | 50.39785 | -1.91854 | 30190 ft | 502 kts | 218° |
| 2026-04-21 16:22 | 50.33937 | -1.97795 | 30176 ft | 501 kts | 218° |
| 2026-04-21 16:23 | 50.28074 | -2.03732 | 30177 ft | 502 kts | 218° |
| 2026-04-21 16:23 | 50.22230 | -2.09597 | 30181 ft | 503 kts | 218° |
| 2026-04-21 16:24 | 50.16322 | -2.15360 | 30176 ft | 501 kts | 217° |
| 2026-04-21 16:24 | 50.10433 | -2.21075 | 30177 ft | 501 kts | 217° |
| 2026-04-21 16:25 | 50.04538 | -2.26794 | 30171 ft | 500 kts | 217° |
| 2026-04-21 16:25 | 49.98644 | -2.32498 | 30165 ft | 498 kts | 217° |
| 2026-04-21 16:26 | 49.92792 | -2.38149 | 30159 ft | 498 kts | 217° |
| 2026-04-21 16:26 | 49.86900 | -2.43832 | 30159 ft | 499 kts | 217° |
| 2026-04-21 16:27 | 49.81015 | -2.49494 | 30151 ft | 498 kts | 217° |
| 2026-04-21 16:27 | 49.75177 | -2.55092 | 30146 ft | 497 kts | 217° |
| 2026-04-21 16:28 | 49.69300 | -2.60711 | 30146 ft | 497 kts | 217° |
| 2026-04-21 16:28 | 49.63418 | -2.66313 | 30141 ft | 497 kts | 216° |
| 2026-04-21 16:29 | 49.58509 | -2.70888 | 30135 ft | 497 kts | 215° |
| 2026-04-21 16:29 | 49.51608 | -2.77347 | 30127 ft | 496 kts | 216° |
| 2026-04-21 16:30 | 49.45773 | -2.82846 | 30129 ft | 496 kts | 216° |
| 2026-04-21 16:30 | 49.39882 | -2.88397 | 30123 ft | 495 kts | 216° |
| 2026-04-21 16:31 | 49.34018 | -2.93908 | 30117 ft | 494 kts | 216° |
| 2026-04-21 16:31 | 49.28176 | -2.99383 | 30117 ft | 495 kts | 216° |
| 2026-04-21 16:32 | 49.22336 | -3.04842 | 30105 ft | 495 kts | 215° |
| 2026-04-21 16:32 | 49.16465 | -3.10312 | 30094 ft | 495 kts | 215° |
| 2026-04-21 16:33 | 49.10599 | -3.15763 | 30092 ft | 494 kts | 215° |
| 2026-04-21 16:33 | 49.04770 | -3.21163 | 30087 ft | 492 kts | 215° |
| 2026-04-21 16:34 | 48.98909 | -3.26579 | 30081 ft | 492 kts | 215° |
| 2026-04-21 16:34 | 48.93058 | -3.31971 | 30078 ft | 491 kts | 215° |
| 2026-04-21 16:35 | 48.87203 | -3.37353 | 30073 ft | 491 kts | 215° |
| 2026-04-21 16:35 | 48.81395 | -3.42678 | 30066 ft | 492 kts | 215° |
| 2026-04-21 16:36 | 48.75517 | -3.48050 | 30062 ft | 492 kts | 214° |
| 2026-04-21 16:36 | 48.69692 | -3.53358 | 30059 ft | 493 kts | 214° |
| 2026-04-21 16:37 | 48.63827 | -3.58689 | 30046 ft | 492 kts | 214° |
| 2026-04-21 16:37 | 48.57965 | -3.64001 | 30041 ft | 491 kts | 214° |
| 2026-04-21 16:38 | 48.52084 | -3.69252 | 30033 ft | 492 kts | 213° |
| 2026-04-21 16:38 | 48.46207 | -3.74461 | 30020 ft | 491 kts | 213° |
| 2026-04-21 16:39 | 48.40346 | -3.79699 | 30025 ft | 491 kts | 213° |
| 2026-04-21 16:39 | 48.34487 | -3.84948 | 30017 ft | 492 kts | 213° |
| 2026-04-21 16:40 | 48.28627 | -3.90187 | 30017 ft | 491 kts | 213° |
| 2026-04-21 16:40 | 48.22753 | -3.95426 | 30006 ft | 491 kts | 213° |
| 2026-04-21 16:41 | 48.17883 | -3.99758 | 30005 ft | 492 kts | 213° |
| 2026-04-21 16:41 | 48.11025 | -4.05842 | 29993 ft | 492 kts | 213° |
| 2026-04-21 16:42 | 48.05145 | -4.11042 | 29988 ft | 490 kts | 212° |
| 2026-04-21 16:42 | 47.99271 | -4.16223 | 29990 ft | 489 kts | 212° |
| 2026-04-21 16:43 | 47.93458 | -4.21338 | 29980 ft | 487 kts | 212° |
| 2026-04-21 16:43 | 47.87616 | -4.26464 | 29974 ft | 489 kts | 212° |
| 2026-04-21 16:44 | 47.81779 | -4.31581 | 29966 ft | 488 kts | 213° |
| 2026-04-21 16:44 | 47.76007 | -4.36907 | 29966 ft | 488 kts | 214° |
| 2026-04-21 16:45 | 47.70323 | -4.42235 | 29964 ft | 487 kts | 214° |
| 2026-04-21 16:45 | 47.64599 | -4.47565 | 29952 ft | 487 kts | 214° |
| 2026-04-21 16:46 | 47.58845 | -4.52892 | 29953 ft | 486 kts | 214° |
| 2026-04-21 16:46 | 47.53122 | -4.58172 | 29945 ft | 485 kts | 214° |
| 2026-04-21 16:47 | 47.47442 | -4.63399 | 29945 ft | 485 kts | 214° |
| 2026-04-21 16:47 | 47.41692 | -4.68626 | 29937 ft | 485 kts | 212° |
| 2026-04-21 16:48 | 47.35953 | -4.73788 | 29920 ft | 485 kts | 213° |
| 2026-04-21 16:48 | 47.30212 | -4.78995 | 29914 ft | 485 kts | 213° |
| 2026-04-21 16:49 | 47.24487 | -4.84202 | 29918 ft | 484 kts | 213° |
| 2026-04-21 16:49 | 47.18781 | -4.89385 | 29912 ft | 484 kts | 213° |
| 2026-04-21 16:50 | 47.13075 | -4.94555 | 29913 ft | 483 kts | 213° |
| 2026-04-21 16:50 | 47.07377 | -4.99705 | 29909 ft | 482 kts | 213° |
| 2026-04-21 16:51 | 47.01667 | -5.04852 | 29908 ft | 482 kts | 213° |
| 2026-04-21 16:51 | 46.95961 | -5.09983 | 29901 ft | 483 kts | 213° |
| 2026-04-21 16:52 | 46.90258 | -5.15099 | 29897 ft | 482 kts | 212° |
| 2026-04-21 16:52 | 46.84548 | -5.20208 | 29898 ft | 482 kts | 212° |
| 2026-04-21 16:53 | 46.78839 | -5.25305 | 29883 ft | 480 kts | 212° |
| 2026-04-21 16:53 | 46.73154 | -5.30365 | 29887 ft | 480 kts | 212° |
| 2026-04-21 16:54 | 46.67466 | -5.35414 | 29880 ft | 481 kts | 212° |
| 2026-04-21 16:54 | 46.61796 | -5.40435 | 29874 ft | 481 kts | 212° |
| 2026-04-21 16:55 | 46.56077 | -5.45488 | 29864 ft | 481 kts | 212° |
| 2026-04-21 16:55 | 46.50386 | -5.50503 | 29858 ft | 480 kts | 212° |
| 2026-04-21 16:56 | 46.44667 | -5.55530 | 29854 ft | 479 kts | 211° |
| 2026-04-21 16:56 | 46.38969 | -5.60526 | 29854 ft | 480 kts | 211° |
| 2026-04-21 16:57 | 46.33306 | -5.65478 | 29849 ft | 480 kts | 211° |
| 2026-04-21 16:57 | 46.27539 | -5.70423 | 29846 ft | 482 kts | 210° |
| 2026-04-21 16:58 | 46.21820 | -5.75336 | 29837 ft | 481 kts | 210° |
| 2026-04-21 16:58 | 46.16098 | -5.80285 | 29833 ft | 479 kts | 210° |
| 2026-04-21 16:59 | 46.10397 | -5.85220 | 29826 ft | 480 kts | 210° |
| 2026-04-21 16:59 | 46.04661 | -5.90177 | 29829 ft | 483 kts | 210° |
| 2026-04-21 17:00 | 45.98888 | -5.95153 | 29824 ft | 482 kts | 210° |
| 2026-04-21 17:00 | 45.94091 | -5.99278 | 29833 ft | 483 kts | 210° |
| 2026-04-21 17:01 | 45.87406 | -6.05014 | 29830 ft | 479 kts | 210° |
| 2026-04-21 17:01 | 45.81717 | -6.09884 | 29825 ft | 478 kts | 210° |
| 2026-04-21 17:02 | 45.76052 | -6.14720 | 29818 ft | 476 kts | 210° |
| 2026-04-21 17:02 | 45.70366 | -6.19562 | 29815 ft | 477 kts | 210° |
| 2026-04-21 17:03 | 45.64684 | -6.24388 | 29807 ft | 477 kts | 210° |
| 2026-04-21 17:03 | 45.58998 | -6.29207 | 29804 ft | 474 kts | 209° |
| 2026-04-21 17:04 | 45.53347 | -6.33984 | 29797 ft | 474 kts | 210° |
| 2026-04-21 17:04 | 45.47652 | -6.38787 | 29789 ft | 475 kts | 210° |
| 2026-04-21 17:05 | 45.42008 | -6.43536 | 29784 ft | 474 kts | 209° |
| 2026-04-21 17:05 | 45.36348 | -6.48287 | 29781 ft | 473 kts | 209° |
| 2026-04-21 17:06 | 45.30652 | -6.53057 | 29773 ft | 473 kts | 209° |
| 2026-04-21 17:06 | 45.25029 | -6.57756 | 29757 ft | 471 kts | 209° |
| 2026-04-21 17:07 | 45.20347 | -6.61659 | 29750 ft | 470 kts | 209° |
| 2026-04-21 17:07 | 45.13776 | -6.67105 | 29744 ft | 470 kts | 207° |
| 2026-04-21 17:08 | 45.08085 | -6.71733 | 29751 ft | 471 kts | 208° |
| 2026-04-21 17:08 | 45.02437 | -6.76367 | 29745 ft | 469 kts | 207° |
| 2026-04-21 17:09 | 44.94015 | -6.83308 | 29726 ft | 466 kts | 207° |
| 2026-04-21 17:09 | 44.88454 | -6.87884 | 29724 ft | 468 kts | 207° |
| 2026-04-21 17:10 | 44.82821 | -6.92527 | 29721 ft | 470 kts | 208° |
| 2026-04-21 17:10 | 44.77275 | -6.97417 | 29729 ft | 471 kts | 210° |
| 2026-04-21 17:11 | 44.71766 | -7.02354 | 29722 ft | 472 kts | 209° |
| 2026-04-21 17:11 | 44.66196 | -7.07305 | 29720 ft | 472 kts | 209° |
| 2026-04-21 17:12 | 44.60687 | -7.12175 | 29722 ft | 471 kts | 209° |
| 2026-04-21 17:12 | 44.55154 | -7.17053 | 29713 ft | 469 kts | 209° |
| 2026-04-21 17:13 | 44.49636 | -7.21905 | 29710 ft | 468 kts | 209° |
| 2026-04-21 17:13 | 44.44115 | -7.26746 | 29706 ft | 471 kts | 209° |
| 2026-04-21 17:14 | 44.38588 | -7.31583 | 29699 ft | 471 kts | 208° |
| 2026-04-21 17:14 | 44.33043 | -7.36427 | 29687 ft | 468 kts | 208° |
| 2026-04-21 17:15 | 44.27526 | -7.41233 | 29681 ft | 468 kts | 208° |
| 2026-04-21 17:15 | 44.22010 | -7.46026 | 29674 ft | 469 kts | 208° |
| 2026-04-21 17:16 | 44.16510 | -7.50797 | 29676 ft | 469 kts | 208° |
| 2026-04-21 17:16 | 44.10967 | -7.55594 | 29682 ft | 469 kts | 208° |
| 2026-04-21 17:17 | 44.05415 | -7.60389 | 29682 ft | 469 kts | 208° |
| 2026-04-21 17:17 | 43.99916 | -7.65127 | 29673 ft | 467 kts | 207° |
| 2026-04-21 17:18 | 43.94398 | -7.69796 | 29676 ft | 463 kts | 207° |
| 2026-04-21 17:18 | 43.88860 | -7.74482 | 29678 ft | 465 kts | 208° |
| 2026-04-21 17:19 | 43.83348 | -7.79181 | 29676 ft | 466 kts | 208° |
| 2026-04-21 17:19 | 43.77838 | -7.83883 | 29675 ft | 467 kts | 208° |
| 2026-04-21 17:20 | 43.72342 | -7.88570 | 29674 ft | 464 kts | 207° |
| 2026-04-21 17:20 | 43.66853 | -7.93237 | 29681 ft | 462 kts | 207° |
| 2026-04-21 17:21 | 43.61403 | -7.97859 | 29688 ft | 463 kts | 208° |
| 2026-04-21 17:21 | 43.55924 | -8.02497 | 29691 ft | 463 kts | 208° |
| 2026-04-21 17:22 | 43.50422 | -8.07145 | 29695 ft | 464 kts | 208° |
| 2026-04-21 17:22 | 43.44915 | -8.11787 | 29699 ft | 465 kts | 208° |
| 2026-04-21 17:23 | 43.39406 | -8.16420 | 29706 ft | 465 kts | 208° |
| 2026-04-21 17:23 | 43.33928 | -8.21019 | 29706 ft | 461 kts | 208° |
| 2026-04-21 17:24 | 43.28450 | -8.25607 | 29700 ft | 463 kts | 208° |
| 2026-04-21 17:24 | 43.22947 | -8.30203 | 29702 ft | 464 kts | 208° |
| 2026-04-21 17:25 | 43.17456 | -8.34785 | 29703 ft | 459 kts | 208° |
| 2026-04-21 17:25 | 43.12019 | -8.39309 | 29709 ft | 460 kts | 208° |
| 2026-04-21 17:26 | 43.06544 | -8.43855 | 29726 ft | 461 kts | 208° |
| 2026-04-21 17:26 | 43.01072 | -8.48390 | 29717 ft | 459 kts | 207° |
| 2026-04-21 17:27 | 42.95600 | -8.52914 | 29720 ft | 458 kts | 208° |
| 2026-04-21 17:27 | 42.90144 | -8.57416 | 29723 ft | 460 kts | 208° |
| 2026-04-21 17:28 | 42.84666 | -8.61926 | 29727 ft | 461 kts | 208° |
| 2026-04-21 17:28 | 42.79185 | -8.66423 | 29719 ft | 457 kts | 207° |
| 2026-04-21 17:29 | 42.73745 | -8.70801 | 29723 ft | 457 kts | 207° |
| 2026-04-21 17:29 | 42.68259 | -8.75243 | 29723 ft | 460 kts | 207° |
| 2026-04-21 17:30 | 42.62804 | -8.79685 | 29717 ft | 457 kts | 207° |
| 2026-04-21 17:30 | 42.57374 | -8.84108 | 29717 ft | 456 kts | 207° |
| 2026-04-21 17:31 | 42.51961 | -8.88510 | 29718 ft | 456 kts | 207° |
| 2026-04-21 17:31 | 42.46517 | -8.92927 | 29729 ft | 456 kts | 207° |
| 2026-04-21 17:32 | 42.41105 | -8.97312 | 29737 ft | 454 kts | 207° |
| 2026-04-21 17:32 | 42.35676 | -9.01699 | 29741 ft | 455 kts | 207° |
| 2026-04-21 17:33 | 42.30241 | -9.06082 | 29749 ft | 453 kts | 207° |
| 2026-04-21 17:33 | 42.24858 | -9.10417 | 29741 ft | 451 kts | 207° |
| 2026-04-21 17:34 | 42.19486 | -9.14732 | 29740 ft | 450 kts | 207° |
| 2026-04-21 17:34 | 42.14115 | -9.19036 | 29731 ft | 451 kts | 207° |
| 2026-04-21 17:35 | 42.08717 | -9.23355 | 29735 ft | 451 kts | 208° |
| 2026-04-21 17:35 | 42.03332 | -9.27656 | 29738 ft | 449 kts | 208° |
| 2026-04-21 17:36 | 41.98004 | -9.31903 | 29731 ft | 447 kts | 208° |
| 2026-04-21 17:36 | 41.92639 | -9.36169 | 29734 ft | 449 kts | 208° |
| 2026-04-21 17:37 | 41.87270 | -9.40489 | 29743 ft | 451 kts | 209° |
| 2026-04-21 17:37 | 41.81904 | -9.44825 | 29728 ft | 451 kts | 210° |
| 2026-04-21 17:38 | 41.76537 | -9.49149 | 29725 ft | 451 kts | 210° |
| 2026-04-21 17:38 | 41.71151 | -9.53474 | 29724 ft | 450 kts | 211° |
| 2026-04-21 17:39 | 41.65811 | -9.57754 | 29727 ft | 451 kts | 211° |
| 2026-04-21 17:39 | 41.60419 | -9.62067 | 29729 ft | 453 kts | 211° |
| 2026-04-21 17:40 | 41.55030 | -9.66359 | 29732 ft | 451 kts | 210° |
| 2026-04-21 17:40 | 41.49647 | -9.70568 | 29738 ft | 450 kts | 211° |
| 2026-04-21 17:41 | 41.44226 | -9.74834 | 29745 ft | 453 kts | 211° |
| 2026-04-21 17:41 | 41.38823 | -9.79109 | 29742 ft | 451 kts | 211° |
| 2026-04-21 17:42 | 41.33433 | -9.83376 | 29753 ft | 453 kts | 212° |
| 2026-04-21 17:42 | 41.28023 | -9.87651 | 29747 ft | 454 kts | 212° |
| 2026-04-21 17:43 | 41.22613 | -9.91919 | 29745 ft | 453 kts | 213° |
| 2026-04-21 17:43 | 41.17189 | -9.96190 | 29753 ft | 454 kts | 213° |
| 2026-04-21 17:44 | 41.11769 | -10.00449 | 29745 ft | 453 kts | 213° |
| 2026-04-21 17:44 | 41.06344 | -10.04703 | 29749 ft | 454 kts | 214° |
| 2026-04-21 17:45 | 41.00905 | -10.08962 | 29755 ft | 456 kts | 214° |
| 2026-04-21 17:45 | 40.95437 | -10.13235 | 29760 ft | 457 kts | 214° |
| 2026-04-21 17:46 | 40.89993 | -10.17479 | 29763 ft | 457 kts | 214° |
| 2026-04-21 17:46 | 40.84576 | -10.22055 | 29755 ft | 457 kts | 218° |
| 2026-04-21 17:47 | 40.79395 | -10.26855 | 29756 ft | 457 kts | 218° |
| 2026-04-21 17:47 | 40.74210 | -10.31625 | 29764 ft | 455 kts | 218° |
| 2026-04-21 17:48 | 40.69018 | -10.36353 | 29762 ft | 455 kts | 218° |
| 2026-04-21 17:48 | 40.63766 | -10.41112 | 29757 ft | 457 kts | 218° |
| 2026-04-21 17:49 | 40.58538 | -10.45835 | 29783 ft | 458 kts | 218° |
| 2026-04-21 17:49 | 40.53303 | -10.50555 | 29779 ft | 458 kts | 218° |
| 2026-04-21 17:50 | 40.48035 | -10.55297 | 29778 ft | 461 kts | 218° |
| 2026-04-21 17:50 | 40.42753 | -10.60042 | 29786 ft | 459 kts | 218° |
| 2026-04-21 17:51 | 40.37500 | -10.64750 | 29784 ft | 461 kts | 218° |
| 2026-04-21 17:51 | 40.32172 | -10.69458 | 29784 ft | 461 kts | 217° |
| 2026-04-21 17:52 | 40.26846 | -10.74152 | 29785 ft | 462 kts | 217° |
| 2026-04-21 17:52 | 40.21517 | -10.78882 | 29784 ft | 462 kts | 218° |
| 2026-04-21 17:53 | 40.16209 | -10.83599 | 29787 ft | 461 kts | 218° |
| 2026-04-21 17:53 | 40.10898 | -10.88315 | 29785 ft | 464 kts | 218° |
| 2026-04-21 17:54 | 40.05582 | -10.93026 | 29798 ft | 463 kts | 217° |
| 2026-04-21 17:54 | 40.00273 | -10.97722 | 29792 ft | 463 kts | 217° |
| 2026-04-21 17:55 | 39.94948 | -11.02423 | 29798 ft | 465 kts | 218° |
| 2026-04-21 17:55 | 39.89581 | -11.07152 | 29802 ft | 465 kts | 218° |
| 2026-04-21 17:56 | 39.84227 | -11.11862 | 29797 ft | 467 kts | 218° |
| 2026-04-21 17:56 | 39.78830 | -11.16601 | 29790 ft | 467 kts | 218° |
| 2026-04-21 17:57 | 39.73471 | -11.21294 | 29789 ft | 466 kts | 218° |
| 2026-04-21 17:57 | 39.68097 | -11.25992 | 29792 ft | 466 kts | 218° |
| 2026-04-21 17:58 | 39.62714 | -11.30692 | 29805 ft | 467 kts | 218° |
| 2026-04-21 17:58 | 39.57350 | -11.35363 | 29810 ft | 466 kts | 218° |
| 2026-04-21 17:59 | 39.51942 | -11.40064 | 29812 ft | 468 kts | 218° |
| 2026-04-21 17:59 | 39.46560 | -11.44735 | 29806 ft | 468 kts | 218° |
| 2026-04-21 18:00 | 39.41145 | -11.49424 | 29806 ft | 468 kts | 218° |
| 2026-04-21 18:00 | 39.35745 | -11.54092 | 29812 ft | 469 kts | 218° |
| 2026-04-21 18:01 | 39.30335 | -11.58759 | 29814 ft | 469 kts | 218° |
| 2026-04-21 18:01 | 39.24915 | -11.63426 | 29816 ft | 469 kts | 218° |
| 2026-04-21 18:02 | 39.19459 | -11.68081 | 29818 ft | 472 kts | 217° |
| 2026-04-21 18:02 | 39.13979 | -11.72712 | 29822 ft | 472 kts | 217° |
| 2026-04-21 18:03 | 39.08518 | -11.77358 | 29831 ft | 470 kts | 217° |
| 2026-04-21 18:03 | 39.03069 | -11.82008 | 29833 ft | 468 kts | 217° |
| 2026-04-21 18:04 | 38.97648 | -11.86633 | 29837 ft | 471 kts | 217° |
| 2026-04-21 18:04 | 38.92198 | -11.91275 | 29841 ft | 472 kts | 217° |
| 2026-04-21 18:05 | 38.86710 | -11.95939 | 29838 ft | 471 kts | 217° |
| 2026-04-21 18:05 | 38.81277 | -12.00549 | 29842 ft | 472 kts | 217° |
| 2026-04-21 18:06 | 38.75818 | -12.05172 | 29841 ft | 471 kts | 217° |
| 2026-04-21 18:06 | 38.70325 | -12.09814 | 29844 ft | 473 kts | 217° |
| 2026-04-21 18:07 | 38.64825 | -12.14454 | 29835 ft | 475 kts | 217° |
| 2026-04-21 18:07 | 38.59341 | -12.19071 | 29836 ft | 475 kts | 217° |
| 2026-04-21 18:08 | 38.53788 | -12.23736 | 29830 ft | 475 kts | 217° |
| 2026-04-21 18:08 | 38.48268 | -12.28365 | 29836 ft | 475 kts | 218° |
| 2026-04-21 18:09 | 38.42766 | -12.32973 | 29845 ft | 476 kts | 218° |
| 2026-04-21 18:09 | 38.37261 | -12.37573 | 29856 ft | 476 kts | 217° |
| 2026-04-21 18:10 | 38.31714 | -12.42200 | 29848 ft | 476 kts | 218° |
| 2026-04-21 18:10 | 38.26165 | -12.46819 | 29852 ft | 476 kts | 218° |
| 2026-04-21 18:11 | 38.20644 | -12.51406 | 29848 ft | 475 kts | 218° |
| 2026-04-21 18:11 | 38.15111 | -12.55996 | 29855 ft | 475 kts | 218° |
| 2026-04-21 18:12 | 38.09566 | -12.60588 | 29853 ft | 477 kts | 218° |
| 2026-04-21 18:12 | 38.04010 | -12.65180 | 29860 ft | 478 kts | 217° |
| 2026-04-21 18:13 | 38.00471 | -12.68067 | 29851 ft | 478 kts | 217° |
| 2026-04-21 18:13 | 37.94894 | -12.72593 | 29846 ft | 478 kts | 217° |
| 2026-04-21 18:14 | 37.86512 | -12.79453 | 29848 ft | 478 kts | 218° |
| 2026-04-21 18:15 | 37.80956 | -12.84011 | 29846 ft | 478 kts | 218° |
| 2026-04-21 18:15 | 37.75373 | -12.88583 | 29848 ft | 479 kts | 218° |
| 2026-04-21 18:16 | 37.69775 | -12.93158 | 29845 ft | 478 kts | 218° |
| 2026-04-21 18:16 | 37.64205 | -12.97701 | 29847 ft | 479 kts | 218° |
| 2026-04-21 18:17 | 37.58615 | -13.02253 | 29852 ft | 480 kts | 218° |
| 2026-04-21 18:17 | 37.53022 | -13.06798 | 29859 ft | 479 kts | 218° |
| 2026-04-21 18:18 | 37.47392 | -13.11365 | 29861 ft | 479 kts | 218° |
| 2026-04-21 18:18 | 37.41814 | -13.15882 | 29864 ft | 478 kts | 218° |
| 2026-04-21 18:19 | 37.36223 | -13.20402 | 29861 ft | 478 kts | 218° |
| 2026-04-21 18:19 | 37.30639 | -13.24907 | 29861 ft | 478 kts | 218° |
| 2026-04-21 18:20 | 37.25064 | -13.29397 | 29864 ft | 477 kts | 218° |
| 2026-04-21 18:20 | 37.19452 | -13.33910 | 29861 ft | 478 kts | 218° |
| 2026-04-21 18:21 | 37.13873 | -13.38388 | 29857 ft | 479 kts | 218° |
| 2026-04-21 18:21 | 37.08257 | -13.42886 | 29860 ft | 479 kts | 218° |
| 2026-04-21 18:22 | 37.02654 | -13.47368 | 29861 ft | 479 kts | 218° |
| 2026-04-21 18:22 | 36.97028 | -13.51858 | 29860 ft | 478 kts | 218° |
| 2026-04-21 18:23 | 36.91445 | -13.56307 | 29863 ft | 478 kts | 218° |
| 2026-04-21 18:23 | 36.85817 | -13.60784 | 29864 ft | 480 kts | 219° |
| 2026-04-21 18:24 | 36.80198 | -13.65249 | 29867 ft | 480 kts | 218° |
| 2026-04-21 18:24 | 36.74498 | -13.69667 | 29867 ft | 482 kts | 217° |
| 2026-04-21 18:25 | 36.68771 | -13.73997 | 29870 ft | 483 kts | 217° |
| 2026-04-21 18:25 | 36.63045 | -13.78347 | 29873 ft | 481 kts | 217° |
| 2026-04-21 18:26 | 36.57350 | -13.82688 | 29873 ft | 480 kts | 217° |
| 2026-04-21 18:26 | 36.51646 | -13.87037 | 29874 ft | 481 kts | 217° |
| 2026-04-21 18:27 | 36.45943 | -13.91378 | 29873 ft | 482 kts | 217° |
| 2026-04-21 18:27 | 36.40200 | -13.95740 | 29875 ft | 484 kts | 218° |
| 2026-04-21 18:28 | 36.34477 | -14.00081 | 29878 ft | 485 kts | 217° |
| 2026-04-21 18:28 | 36.28714 | -14.04442 | 29886 ft | 485 kts | 218° |
| 2026-04-21 18:29 | 36.22992 | -14.08765 | 29890 ft | 483 kts | 218° |
| 2026-04-21 18:29 | 36.17258 | -14.13089 | 29893 ft | 481 kts | 218° |
| 2026-04-21 18:30 | 36.11531 | -14.17402 | 29894 ft | 481 kts | 218° |
| 2026-04-21 18:30 | 36.05819 | -14.21698 | 29899 ft | 484 kts | 218° |
| 2026-04-21 18:31 | 36.00071 | -14.26011 | 29899 ft | 483 kts | 218° |
| 2026-04-21 18:31 | 35.94328 | -14.30313 | 29894 ft | 484 kts | 218° |
| 2026-04-21 18:32 | 35.88557 | -14.34629 | 29899 ft | 485 kts | 218° |
| 2026-04-21 18:32 | 35.82787 | -14.38938 | 29897 ft | 485 kts | 218° |
| 2026-04-21 18:33 | 35.77036 | -14.43225 | 29899 ft | 486 kts | 218° |
| 2026-04-21 18:33 | 35.71249 | -14.47529 | 29901 ft | 486 kts | 218° |
| 2026-04-21 18:34 | 35.65458 | -14.51831 | 29905 ft | 488 kts | 218° |
| 2026-04-21 18:34 | 35.59639 | -14.56146 | 29907 ft | 489 kts | 218° |
| 2026-04-21 18:35 | 35.54789 | -14.59735 | 29912 ft | 489 kts | 218° |
| 2026-04-21 18:35 | 35.47984 | -14.64763 | 29910 ft | 489 kts | 218° |
| 2026-04-21 18:36 | 35.42129 | -14.69033 | 29915 ft | 492 kts | 217° |
| 2026-04-21 18:36 | 35.36266 | -14.73297 | 29913 ft | 490 kts | 217° |
| 2026-04-21 18:37 | 35.30446 | -14.77558 | 29917 ft | 489 kts | 217° |
| 2026-04-21 18:37 | 35.24593 | -14.81852 | 29916 ft | 491 kts | 217° |
| 2026-04-21 18:38 | 35.18745 | -14.86139 | 29918 ft | 493 kts | 217° |
| 2026-04-21 18:38 | 35.12863 | -14.90440 | 29919 ft | 493 kts | 217° |
| 2026-04-21 18:39 | 35.06960 | -14.94749 | 29922 ft | 493 kts | 217° |
| 2026-04-21 18:39 | 35.01080 | -14.99035 | 29921 ft | 494 kts | 217° |
| 2026-04-21 18:40 | 34.95179 | -15.03329 | 29927 ft | 494 kts | 217° |
| 2026-04-21 18:40 | 34.90253 | -15.06907 | 29928 ft | 493 kts | 217° |
| 2026-04-21 18:41 | 34.83401 | -15.11877 | 29928 ft | 493 kts | 217° |
| 2026-04-21 18:41 | 34.77491 | -15.16158 | 29930 ft | 494 kts | 217° |
| 2026-04-21 18:42 | 34.71610 | -15.20408 | 29931 ft | 495 kts | 217° |
| 2026-04-21 18:42 | 34.65684 | -15.24683 | 29933 ft | 495 kts | 217° |
| 2026-04-21 18:43 | 34.59744 | -15.28962 | 29934 ft | 495 kts | 217° |
| 2026-04-21 18:43 | 34.53838 | -15.33207 | 29933 ft | 493 kts | 217° |
| 2026-04-21 18:44 | 34.47950 | -15.37434 | 29934 ft | 492 kts | 217° |
| 2026-04-21 18:44 | 34.42036 | -15.41678 | 29936 ft | 495 kts | 217° |
| 2026-04-21 18:45 | 34.36095 | -15.45931 | 29935 ft | 496 kts | 216° |
| 2026-04-21 18:45 | 34.30192 | -15.50148 | 29939 ft | 496 kts | 216° |
| 2026-04-21 18:46 | 34.24250 | -15.54386 | 29934 ft | 496 kts | 216° |
| 2026-04-21 18:46 | 34.21261 | -15.56518 | 29700 ft | 499 kts | 216° |
| 2026-04-21 18:46 | 34.18261 | -15.58655 | 29253 ft | 498 kts | 216° |
| 2026-04-21 18:46 | 34.15319 | -15.60745 | 28808 ft | 492 kts | 216° |
| 2026-04-21 18:47 | 34.12374 | -15.62834 | 28357 ft | 485 kts | 216° |
| 2026-04-21 18:47 | 34.09511 | -15.64865 | 27913 ft | 480 kts | 216° |
| 2026-04-21 18:47 | 34.06632 | -15.66894 | 27464 ft | 477 kts | 215° |
| 2026-04-21 18:47 | 34.03764 | -15.68896 | 27014 ft | 475 kts | 215° |
| 2026-04-21 18:48 | 34.00912 | -15.70892 | 26569 ft | 474 kts | 214° |
| 2026-04-21 18:48 | 33.98076 | -15.72884 | 26124 ft | 472 kts | 215° |
| 2026-04-21 18:48 | 33.95262 | -15.74865 | 25681 ft | 468 kts | 214° |
| 2026-04-21 18:48 | 33.92444 | -15.76852 | 25235 ft | 464 kts | 215° |
| 2026-04-21 18:49 | 33.89693 | -15.78792 | 24793 ft | 461 kts | 215° |
| 2026-04-21 18:49 | 33.86912 | -15.80755 | 24350 ft | 458 kts | 214° |
| 2026-04-21 18:49 | 33.85080 | -15.82047 | 24062 ft | 457 kts | 214° |
| 2026-04-21 18:49 | 33.81452 | -15.84606 | 23489 ft | 455 kts | 214° |
| 2026-04-21 18:50 | 33.78707 | -15.86539 | 23053 ft | 452 kts | 214° |
| 2026-04-21 18:50 | 33.76015 | -15.88434 | 22625 ft | 449 kts | 214° |
| 2026-04-21 18:50 | 33.73338 | -15.90315 | 22196 ft | 446 kts | 214° |
| 2026-04-21 18:50 | 33.70685 | -15.92180 | 21772 ft | 443 kts | 214° |
| 2026-04-21 18:51 | 33.68038 | -15.94038 | 21347 ft | 440 kts | 214° |
| 2026-04-21 18:51 | 33.65364 | -15.95856 | 20916 ft | 436 kts | 213° |
| 2026-04-21 18:51 | 33.62797 | -15.97732 | 20493 ft | 431 kts | 217° |
| 2026-04-21 18:51 | 33.60303 | -15.99700 | 20068 ft | 429 kts | 217° |
| 2026-04-21 18:52 | 33.57833 | -16.01664 | 19649 ft | 427 kts | 217° |
| 2026-04-21 18:52 | 33.55379 | -16.03597 | 19231 ft | 423 kts | 217° |
| 2026-04-21 18:52 | 33.52900 | -16.05532 | 18805 ft | 420 kts | 217° |
| 2026-04-21 18:52 | 33.50450 | -16.07430 | 18383 ft | 417 kts | 216° |
| 2026-04-21 18:53 | 33.48036 | -16.09290 | 17967 ft | 414 kts | 216° |
| 2026-04-21 18:53 | 33.45622 | -16.11143 | 17559 ft | 412 kts | 216° |
| 2026-04-21 18:53 | 33.43214 | -16.12987 | 17155 ft | 411 kts | 216° |
| 2026-04-21 18:53 | 33.40808 | -16.14828 | 16747 ft | 410 kts | 216° |
| 2026-04-21 18:54 | 33.38419 | -16.16653 | 16337 ft | 408 kts | 216° |
| 2026-04-21 18:54 | 33.36032 | -16.18475 | 15928 ft | 406 kts | 216° |
| 2026-04-21 18:54 | 33.33656 | -16.20287 | 15514 ft | 404 kts | 216° |
| 2026-04-21 18:54 | 33.31298 | -16.22083 | 15093 ft | 402 kts | 215° |
| 2026-04-21 18:55 | 33.29720 | -16.23286 | 14815 ft | 401 kts | 215° |
| 2026-04-21 18:55 | 33.26572 | -16.25681 | 14253 ft | 399 kts | 215° |
| 2026-04-21 18:55 | 33.24244 | -16.27451 | 13815 ft | 397 kts | 215° |
| 2026-04-21 18:55 | 33.21924 | -16.29214 | 13405 ft | 395 kts | 215° |
| 2026-04-21 18:56 | 33.19615 | -16.30966 | 12999 ft | 393 kts | 215° |
| 2026-04-21 18:56 | 33.17295 | -16.32726 | 12559 ft | 391 kts | 215° |
| 2026-04-21 18:56 | 33.15014 | -16.34455 | 12147 ft | 389 kts | 215° |
| 2026-04-21 18:56 | 33.12741 | -16.36177 | 11735 ft | 387 kts | 215° |
| 2026-04-21 18:57 | 33.10477 | -16.37893 | 11321 ft | 386 kts | 215° |
| 2026-04-21 18:57 | 33.08218 | -16.39602 | 10904 ft | 384 kts | 215° |
| 2026-04-21 18:57 | 33.05978 | -16.41296 | 10490 ft | 382 kts | 215° |
| 2026-04-21 18:57 | 33.03722 | -16.43002 | 10069 ft | 380 kts | 215° |
| 2026-04-21 18:58 | 33.01491 | -16.44687 | 9652 ft | 380 kts | 215° |
| 2026-04-21 18:58 | 32.99266 | -16.46367 | 9244 ft | 378 kts | 215° |
| 2026-04-21 18:58 | 32.97059 | -16.48033 | 8820 ft | 376 kts | 215° |
| 2026-04-21 18:58 | 32.94869 | -16.49684 | 8403 ft | 371 kts | 215° |
| 2026-04-21 18:59 | 32.92719 | -16.51368 | 7989 ft | 363 kts | 219° |
| 2026-04-21 18:59 | 32.90810 | -16.53274 | 7571 ft | 356 kts | 224° |
| 2026-04-21 18:59 | 32.89004 | -16.55236 | 7156 ft | 351 kts | 225° |
| 2026-04-21 18:59 | 32.87209 | -16.57195 | 6718 ft | 346 kts | 224° |
| 2026-04-21 19:00 | 32.85446 | -16.59102 | 6298 ft | 341 kts | 224° |
| 2026-04-21 19:00 | 32.83708 | -16.60966 | 5882 ft | 337 kts | 224° |
| 2026-04-21 19:00 | 32.81939 | -16.62812 | 5456 ft | 333 kts | 220° |
| 2026-04-21 19:00 | 32.79955 | -16.64193 | 5031 ft | 331 kts | 203° |
| 2026-04-21 19:01 | 32.77770 | -16.65002 | 4602 ft | 328 kts | 197° |
| 2026-04-21 19:01 | 32.75573 | -16.65723 | 4173 ft | 325 kts | 197° |
| 2026-04-21 19:01 | 32.73425 | -16.66492 | 3796 ft | 320 kts | 199° |
| 2026-04-21 19:01 | 32.71327 | -16.67303 | 3422 ft | 316 kts | 200° |
| 2026-04-21 19:02 | 32.69241 | -16.68138 | 3120 ft | 309 kts | 200° |
| 2026-04-21 19:02 | 32.67250 | -16.68943 | 3019 ft | 295 kts | 200° |
| 2026-04-21 19:02 | 32.65358 | -16.69710 | 2997 ft | 279 kts | 200° |
| 2026-04-21 19:02 | 32.63565 | -16.70444 | 2779 ft | 266 kts | 203° |
| 2026-04-21 19:03 | 32.62087 | -16.71541 | 2400 ft | 244 kts | 229° |
| 2026-04-21 19:03 | 32.61164 | -16.73103 | 2017 ft | 215 kts | 250° |
| 2026-04-21 19:03 | 32.60772 | -16.74699 | 1693 ft | 194 kts | 266° |
| 2026-04-21 19:03 | 32.60749 | -16.76200 | 1544 ft | 167 kts | 279° |
| 2026-04-21 19:04 | 32.60983 | -16.77477 | 1524 ft | 156 kts | 290° |
| 2026-04-21 19:04 | 32.61447 | -16.78605 | 1508 ft | 152 kts | 306° |
| 2026-04-21 19:04 | 32.62172 | -16.79513 | 1501 ft | 151 kts | 323° |
| 2026-04-21 19:04 | 32.63097 | -16.80118 | 1506 ft | 151 kts | 340° |
| 2026-04-21 19:05 | 32.64143 | -16.80363 | 1377 ft | 155 kts | 356° |
| 2026-04-21 19:05 | 32.65213 | -16.80348 | 1221 ft | 153 kts | 359° |
| 2026-04-21 19:05 | 32.66272 | -16.80331 | 1006 ft | 153 kts | 1° |
| 2026-04-21 19:05 | 32.67320 | -16.80103 | 730 ft | 153 kts | 22° |
| 2026-04-21 19:06 | 32.68166 | -16.79350 | 415 ft | 152 kts | 43° |
| 2026-04-21 19:06 | 32.68919 | -16.78458 | 178 ft | 155 kts | 40° |
| 2026-04-21 19:06 | 32.69624 | -16.77638 | 193 ft | 115 kts | 44° |
| 2026-04-21 19:06 | 32.70050 | -16.77140 | 203 ft | 68 kts | 44° |
| 2026-04-21 19:07 | 32.70318 | -16.76830 | 202 ft | 18 kts | 43° |
| 2026-04-21 19:07 | 32.70371 | -16.76756 | 202 ft | 4 kts | 13° |
| 2026-04-21 19:07 | 32.70395 | -16.76767 | 202 ft | 3 kts | 303° |
| 2026-04-21 19:07 | 32.70398 | -16.76781 | 202 ft | 0 kts | 255° |
| 2026-04-21 19:08 | 32.70397 | -16.76784 | 202 ft | 0 kts | 246° |
| 2026-04-21 19:08 | 32.70393 | -16.76790 | 202 ft | 2 kts | 216° |
| 2026-04-21 19:08 | 32.70356 | -16.76808 | 202 ft | 9 kts | 202° |
| 2026-04-21 19:08 | 32.70286 | -16.76860 | 202 ft | 14 kts | 220° |
| 2026-04-21 19:09 | 32.70199 | -16.76965 | 202 ft | 20 kts | 224° |
| 2026-04-21 19:09 | 32.70097 | -16.77084 | 202 ft | 20 kts | 225° |
| 2026-04-21 19:09 | 32.70001 | -16.77181 | 202 ft | 12 kts | 199° |
| 2026-04-21 19:09 | 32.69920 | -16.77181 | 202 ft | 10 kts | 175° |
| 2026-04-21 19:10 | 32.69853 | -16.77180 | 202 ft | 8 kts | 196° |
| 2026-04-21 19:10 | 32.69812 | -16.77208 | 202 ft | 5 kts | 224° |
| 2026-04-21 19:10 | 32.69782 | -16.77245 | 201 ft | 8 kts | 226° |
| 2026-04-21 19:10 | 32.69721 | -16.77321 | 191 ft | 17 kts | 226° |
| 2026-04-21 19:11 | 32.69652 | -16.77403 | 189 ft | 2 kts | 223° |
| 2026-04-21 19:11 | 32.69639 | -16.77419 | 188 ft | 2 kts | 225° |
| 2026-04-21 19:11 | 32.69622 | -16.77438 | 187 ft | 4 kts | 224° |
| 2026-04-21 19:11 | 32.69588 | -16.77441 | 187 ft | 6 kts | 143° |
| 2026-04-21 19:12 | 32.69564 | -16.77417 | 187 ft | 6 kts | 139° |
| 2026-04-21 19:12 | 32.69544 | -16.77397 | 187 ft | 0 kts | 137° |